createdAt,value
2017-07-05T00:01:19.915Z,17.40
2017-07-05T00:03:47.496Z,17.30
2017-07-05T00:06:15.083Z,17.30
2017-07-05T00:08:43.421Z,17.30
2017-07-05T00:11:10.992Z,17.30
2017-07-05T00:13:38.569Z,17.20
2017-07-05T00:16:07.223Z,17.10
2017-07-05T00:18:34.799Z,17.10
2017-07-05T00:21:02.377Z,17.00
2017-07-05T00:23:30.731Z,16.80
2017-07-05T00:25:58.307Z,16.80
2017-07-05T00:28:26.665Z,16.80
2017-07-05T00:30:54.227Z,16.80
2017-07-05T00:33:22.077Z,16.80
2017-07-05T00:35:49.662Z,16.90
2017-07-05T00:38:17.983Z,16.90
2017-07-05T00:40:45.559Z,16.90
2017-07-05T00:43:13.125Z,16.80
2017-07-05T00:45:40.717Z,16.80
2017-07-05T00:48:08.300Z,16.80
2017-07-05T00:50:36.201Z,16.80
2017-07-05T00:53:03.783Z,16.70
2017-07-05T00:55:31.347Z,16.60
2017-07-05T00:57:58.978Z,16.60
2017-07-05T01:00:26.547Z,16.50
2017-07-05T01:02:54.411Z,16.60
2017-07-05T01:05:21.971Z,16.50
2017-07-05T01:07:49.530Z,16.40
2017-07-05T01:10:17.106Z,16.40
2017-07-05T01:12:44.666Z,16.40
2017-07-05T01:15:12.520Z,16.30
2017-07-05T01:17:40.109Z,16.40
2017-07-05T01:20:08.438Z,16.30
2017-07-05T01:22:36.023Z,16.30
2017-07-05T01:25:03.586Z,16.40
2017-07-05T01:27:31.169Z,16.30
2017-07-05T01:29:59.512Z,16.20
2017-07-05T01:32:27.465Z,16.20
2017-07-05T01:34:55.028Z,16.20
2017-07-05T01:37:22.589Z,16.20
2017-07-05T01:39:50.174Z,16.10
2017-07-05T01:42:17.993Z,16.10
2017-07-05T01:44:45.572Z,16.10
2017-07-05T01:47:13.164Z,16.00
2017-07-05T01:49:41.509Z,16.10
2017-07-05T01:52:09.086Z,16.10
2017-07-05T01:54:37.027Z,16.00
2017-07-05T01:57:04.599Z,16.00
2017-07-05T01:59:32.182Z,15.90
2017-07-05T02:02:00.124Z,15.90
2017-07-05T02:04:27.687Z,15.90
2017-07-05T02:06:55.281Z,15.90
2017-07-05T02:09:23.631Z,15.90
2017-07-05T02:11:51.218Z,15.90
2017-07-05T02:14:18.825Z,15.90
2017-07-05T02:16:46.397Z,15.90
2017-07-05T02:19:14.260Z,15.90
2017-07-05T02:21:41.814Z,15.90
2017-07-05T02:24:09.397Z,15.90
2017-07-05T02:26:36.972Z,15.90
2017-07-05T02:29:05.303Z,15.90
2017-07-05T02:31:32.862Z,15.80
2017-07-05T02:34:00.412Z,15.80
2017-07-05T02:36:27.990Z,15.80
2017-07-05T02:38:55.565Z,15.80
2017-07-05T02:41:23.140Z,15.80
2017-07-05T02:43:51.468Z,15.70
2017-07-05T02:46:19.047Z,15.70
2017-07-05T02:48:46.633Z,15.70
2017-07-05T02:51:14.991Z,15.50
2017-07-05T02:53:42.563Z,15.50
2017-07-05T02:56:10.916Z,15.40
2017-07-05T02:58:38.479Z,15.40
2017-07-05T03:01:06.063Z,15.40
2017-07-05T03:03:33.641Z,15.40
2017-07-05T03:06:01.228Z,15.50
2017-07-05T03:08:28.801Z,15.50
2017-07-05T03:10:56.393Z,15.50
2017-07-05T03:13:23.959Z,15.50
2017-07-05T03:15:52.312Z,15.60
2017-07-05T03:18:19.893Z,15.50
2017-07-05T03:20:47.463Z,15.50
2017-07-05T03:23:15.811Z,15.40
2017-07-05T03:25:43.415Z,15.40
2017-07-05T03:28:10.981Z,15.40
2017-07-05T03:30:38.560Z,15.50
2017-07-05T03:33:06.161Z,15.40
2017-07-05T03:35:33.782Z,15.40
2017-07-05T03:38:01.390Z,15.40
2017-07-05T03:40:29.760Z,15.40
2017-07-05T03:42:57.339Z,15.40
2017-07-05T03:45:25.675Z,15.40
2017-07-05T03:47:53.258Z,15.40
2017-07-05T03:50:20.837Z,15.30
2017-07-05T03:52:48.420Z,15.30
2017-07-05T03:55:16.005Z,15.30
2017-07-05T03:57:43.591Z,15.40
2017-07-05T04:00:11.148Z,15.40
2017-07-05T04:02:38.719Z,15.40
2017-07-05T04:05:06.289Z,15.50
2017-07-05T04:07:33.866Z,15.50
2017-07-05T04:10:01.432Z,15.50
2017-07-05T04:12:29.031Z,15.60
2017-07-05T04:14:56.648Z,15.60
2017-07-05T04:17:24.221Z,15.60
2017-07-05T04:19:51.797Z,15.70
2017-07-05T04:22:20.082Z,15.70
2017-07-05T04:24:47.657Z,15.80
2017-07-05T04:27:15.228Z,15.90
2017-07-05T04:29:43.555Z,16.20
2017-07-05T04:32:11.129Z,16.20
2017-07-05T04:34:38.686Z,16.30
2017-07-05T04:37:06.254Z,16.40
2017-07-05T04:39:33.805Z,16.50
2017-07-05T04:42:01.373Z,16.60
2017-07-05T04:44:28.945Z,16.70
2017-07-05T04:46:57.292Z,16.90
2017-07-05T04:49:24.848Z,16.90
2017-07-05T04:51:52.421Z,17.00
2017-07-05T04:54:19.984Z,17.20
2017-07-05T04:56:47.561Z,17.30
2017-07-05T04:59:15.142Z,17.40
2017-07-05T05:01:42.706Z,17.50
2017-07-05T05:04:10.288Z,17.50
2017-07-05T05:06:37.851Z,17.60
2017-07-05T05:09:05.410Z,17.70
2017-07-05T05:11:32.958Z,17.80
2017-07-05T05:14:00.529Z,18.00
2017-07-05T05:16:28.977Z,18.00
2017-07-05T05:18:56.538Z,18.10
2017-07-05T05:21:24.093Z,18.20
2017-07-05T05:23:51.667Z,18.30
2017-07-05T05:26:19.245Z,18.40
2017-07-05T05:28:46.849Z,18.50
2017-07-05T05:31:15.167Z,18.70
2017-07-05T05:33:42.758Z,18.70
2017-07-05T05:36:10.352Z,18.80
2017-07-05T05:38:38.705Z,19.00
2017-07-05T05:41:06.300Z,19.00
2017-07-05T05:43:33.889Z,19.10
2017-07-05T05:46:01.448Z,19.20
2017-07-05T05:48:29.028Z,19.30
2017-07-05T05:50:56.581Z,19.40
2017-07-05T05:53:24.187Z,19.50
2017-07-05T05:55:52.542Z,19.70
2017-07-05T05:58:20.134Z,19.70
2017-07-05T06:00:47.696Z,19.80
2017-07-05T06:03:15.295Z,20.00
2017-07-05T06:05:42.845Z,20.10
2017-07-05T06:08:10.413Z,20.20
2017-07-05T06:10:37.987Z,20.20
2017-07-05T06:13:05.579Z,20.30
2017-07-05T06:15:33.151Z,20.40
2017-07-05T06:18:00.723Z,20.50
2017-07-05T06:20:28.291Z,20.60
2017-07-05T06:22:55.884Z,20.70
2017-07-05T06:25:23.443Z,20.80
2017-07-05T06:27:51.409Z,20.90
2017-07-05T06:30:18.975Z,21.00
2017-07-05T06:32:46.558Z,21.10
2017-07-05T06:35:14.893Z,21.30
2017-07-05T06:37:42.457Z,21.20
2017-07-05T06:40:10.049Z,21.30
2017-07-05T06:42:37.620Z,21.40
2017-07-05T06:45:05.247Z,21.40
2017-07-05T06:47:32.815Z,21.50
2017-07-05T06:50:00.455Z,21.50
2017-07-05T06:52:28.045Z,21.50
2017-07-05T06:54:56.382Z,21.70
2017-07-05T06:57:23.957Z,21.80
2017-07-05T06:59:51.546Z,21.90
2017-07-05T07:02:20.719Z,21.90
2017-07-05T07:04:48.283Z,21.80
2017-07-05T07:07:15.842Z,21.90
2017-07-05T07:09:43.426Z,22.00
2017-07-05T07:12:11.766Z,22.10
2017-07-05T07:14:39.419Z,22.10
2017-07-05T07:17:06.987Z,22.20
2017-07-05T07:19:34.586Z,22.30
2017-07-05T07:22:02.137Z,22.30
2017-07-05T07:24:30.474Z,22.50
2017-07-05T07:26:58.027Z,22.40
2017-07-05T07:29:25.591Z,22.60
2017-07-05T07:31:53.164Z,22.70
2017-07-05T07:34:20.752Z,22.70
2017-07-05T07:36:49.089Z,22.80
2017-07-05T07:39:16.662Z,22.80
2017-07-05T07:41:44.309Z,22.80
2017-07-05T07:44:11.888Z,22.80
2017-07-05T07:46:39.496Z,22.90
2017-07-05T07:49:07.087Z,22.90
2017-07-05T07:51:34.653Z,23.00
2017-07-05T07:54:02.236Z,23.10
2017-07-05T07:56:30.554Z,23.20
2017-07-05T07:58:58.430Z,23.20
2017-07-05T08:01:26.009Z,23.30
2017-07-05T08:03:53.563Z,23.30
2017-07-05T08:06:21.165Z,23.40
2017-07-05T08:08:49.555Z,23.50
2017-07-05T08:11:17.141Z,23.50
2017-07-05T08:13:44.719Z,23.50
2017-07-05T08:16:12.305Z,23.60
2017-07-05T08:18:40.629Z,23.80
2017-07-05T08:21:08.225Z,23.80
2017-07-05T08:23:35.785Z,23.80
2017-07-05T08:26:03.360Z,23.90
2017-07-05T08:28:31.683Z,23.90
2017-07-05T08:30:59.274Z,23.90
2017-07-05T08:33:26.837Z,24.00
2017-07-05T08:35:54.418Z,24.00
2017-07-05T08:38:22.735Z,24.20
2017-07-05T08:40:50.303Z,24.20
2017-07-05T08:43:17.879Z,24.20
2017-07-05T08:45:45.449Z,24.20
2017-07-05T08:48:13.015Z,24.30
2017-07-05T08:50:40.589Z,24.40
2017-07-05T08:53:08.915Z,24.40
2017-07-05T08:55:36.496Z,24.40
2017-07-05T08:58:04.068Z,24.50
2017-07-05T09:00:31.666Z,24.50
2017-07-05T09:02:59.242Z,24.50
2017-07-05T09:05:26.811Z,24.60
2017-07-05T09:07:54.371Z,24.70
2017-07-05T09:10:21.941Z,24.70
2017-07-05T09:12:49.533Z,24.80
2017-07-05T09:15:17.112Z,25.00
2017-07-05T09:17:44.693Z,25.10
2017-07-05T09:20:12.270Z,25.20
2017-07-05T09:22:39.859Z,25.20
2017-07-05T09:25:08.242Z,25.40
2017-07-05T09:27:35.807Z,25.40
2017-07-05T09:30:04.458Z,25.60
2017-07-05T09:32:32.054Z,25.60
2017-07-05T09:35:00.394Z,25.80
2017-07-05T09:37:27.962Z,25.80
2017-07-05T09:39:55.528Z,25.90
2017-07-05T09:42:23.098Z,25.90
2017-07-05T09:44:50.665Z,26.00
2017-07-05T09:47:19.015Z,26.00
2017-07-05T09:49:46.570Z,26.00
2017-07-05T09:52:14.149Z,26.10
2017-07-05T09:54:41.732Z,26.20
2017-07-05T09:57:09.312Z,26.30
2017-07-05T09:59:36.894Z,26.30
2017-07-05T10:02:04.475Z,26.30
2017-07-05T10:04:32.052Z,26.50
2017-07-05T10:07:00.398Z,26.70
2017-07-05T10:09:27.961Z,26.70
2017-07-05T10:11:55.550Z,26.70
2017-07-05T10:14:23.893Z,26.80
2017-07-05T10:16:51.482Z,26.70
2017-07-05T10:19:19.043Z,26.80
2017-07-05T10:21:47.401Z,26.80
2017-07-05T10:24:14.987Z,26.80
2017-07-05T10:26:42.567Z,26.90
2017-07-05T10:29:10.132Z,27.10
2017-07-05T10:31:37.709Z,27.20
2017-07-05T10:34:05.262Z,27.20
2017-07-05T10:36:32.833Z,27.30
2017-07-05T10:39:00.382Z,27.50
2017-07-05T10:41:28.956Z,27.50
2017-07-05T10:43:56.527Z,27.60
2017-07-05T10:46:24.097Z,27.60
2017-07-05T10:48:51.679Z,27.60
2017-07-05T10:51:19.257Z,27.70
2017-07-05T10:53:46.831Z,27.70
2017-07-05T10:56:14.458Z,27.80
2017-07-05T10:58:42.789Z,27.90
2017-07-05T11:01:10.681Z,27.90
2017-07-05T11:03:38.266Z,27.90
2017-07-05T11:06:06.640Z,27.90
2017-07-05T11:08:35.011Z,28.10
2017-07-05T11:11:02.587Z,28.10
2017-07-05T11:13:30.961Z,28.20
2017-07-05T11:15:59.308Z,28.30
2017-07-05T11:18:26.901Z,28.30
2017-07-05T11:20:55.228Z,28.60
2017-07-05T11:23:22.817Z,28.60
2017-07-05T11:25:50.370Z,28.70
2017-07-05T11:28:17.960Z,28.70
2017-07-05T11:30:46.283Z,28.60
2017-07-05T11:33:13.879Z,28.60
2017-07-05T11:35:42.302Z,28.50
2017-07-05T11:38:09.913Z,28.50
2017-07-05T11:40:37.482Z,28.50
2017-07-05T11:43:05.090Z,28.50
2017-07-05T11:45:32.666Z,28.60
2017-07-05T11:48:00.235Z,28.80
2017-07-05T11:50:27.802Z,28.80
2017-07-05T11:52:55.379Z,29.00
2017-07-05T11:55:23.732Z,29.20
2017-07-05T11:57:51.337Z,29.20
2017-07-05T12:00:18.920Z,29.30
2017-07-05T12:02:46.530Z,29.30
2017-07-05T12:05:14.888Z,29.40
2017-07-05T12:07:42.479Z,29.40
2017-07-05T12:10:10.045Z,29.40
2017-07-05T12:12:37.646Z,29.40
2017-07-05T12:15:05.218Z,29.40
2017-07-05T12:17:32.788Z,29.40
2017-07-05T12:20:00.357Z,29.40
2017-07-05T12:22:27.924Z,29.40
2017-07-05T12:24:56.259Z,29.50
2017-07-05T12:27:23.858Z,29.40
2017-07-05T12:29:52.183Z,29.80
2017-07-05T12:32:20.499Z,29.70
2017-07-05T12:34:48.081Z,29.80
2017-07-05T12:37:16.405Z,29.90
2017-07-05T12:39:43.996Z,29.90
2017-07-05T12:42:12.351Z,29.80
2017-07-05T12:44:39.925Z,29.70
2017-07-05T12:47:07.488Z,29.80
2017-07-05T12:49:35.051Z,30.00
2017-07-05T12:52:03.384Z,30.10
2017-07-05T12:54:30.945Z,30.00
2017-07-05T12:56:58.514Z,30.10
2017-07-05T12:59:26.139Z,30.10
2017-07-05T13:01:53.705Z,30.10
2017-07-05T13:04:21.316Z,30.30
2017-07-05T13:06:48.924Z,30.30
2017-07-05T13:09:16.487Z,30.50
2017-07-05T13:11:44.035Z,30.60
2017-07-05T13:14:11.634Z,30.60
2017-07-05T13:16:39.189Z,30.40
2017-07-05T13:19:06.754Z,30.50
2017-07-05T13:21:34.348Z,30.50
2017-07-05T13:24:02.694Z,30.50
2017-07-05T13:26:30.287Z,30.50
2017-07-05T13:28:57.869Z,30.40
2017-07-05T13:31:25.470Z,30.60
2017-07-05T13:33:53.072Z,30.60
2017-07-05T13:36:20.647Z,30.60
2017-07-05T13:38:48.268Z,30.60
2017-07-05T13:41:15.831Z,30.60
2017-07-05T13:43:44.179Z,30.80
2017-07-05T13:46:11.748Z,30.80
2017-07-05T13:48:39.331Z,31.00
2017-07-05T13:51:06.900Z,31.30
2017-07-05T13:53:35.263Z,31.40
2017-07-05T13:56:02.829Z,31.40
2017-07-05T13:58:30.443Z,31.50
2017-07-05T14:00:58.013Z,31.70
2017-07-05T14:03:25.883Z,31.60
2017-07-05T14:05:53.530Z,31.60
2017-07-05T14:08:21.092Z,31.70
2017-07-05T14:10:48.690Z,32.00
2017-07-05T14:13:16.267Z,32.10
2017-07-05T14:15:43.832Z,32.30
2017-07-05T14:18:11.406Z,32.40
2017-07-05T14:20:38.980Z,32.30
2017-07-05T14:23:06.538Z,32.20
2017-07-05T14:25:34.140Z,32.00
2017-07-05T14:28:02.475Z,32.00
2017-07-05T14:30:30.142Z,32.00
2017-07-05T14:32:57.697Z,31.90
2017-07-05T14:35:25.275Z,32.10
2017-07-05T14:37:52.867Z,32.30
2017-07-05T14:40:20.494Z,32.60
2017-07-05T14:42:48.065Z,32.60
2017-07-05T14:45:16.396Z,32.30
2017-07-05T14:47:43.974Z,32.30
2017-07-05T14:50:11.554Z,32.50
2017-07-05T14:52:39.109Z,32.70
2017-07-05T14:55:06.694Z,32.60
2017-07-05T14:57:34.283Z,32.60
2017-07-05T15:00:01.882Z,32.70
2017-07-05T15:02:29.441Z,33.20
2017-07-05T15:04:57.032Z,33.40
2017-07-05T15:07:24.587Z,34.00
2017-07-05T15:09:52.177Z,34.40
2017-07-05T15:12:19.752Z,35.20
2017-07-05T15:14:47.340Z,36.40
2017-07-05T15:17:14.942Z,38.00
2017-07-05T15:19:42.526Z,38.50
2017-07-05T15:22:10.094Z,38.20
2017-07-05T15:24:37.666Z,38.50
2017-07-05T15:27:05.230Z,38.50
2017-07-05T15:29:32.808Z,39.50
2017-07-05T15:32:01.152Z,41.20
2017-07-05T15:34:28.738Z,41.10
2017-07-05T15:36:57.084Z,42.80
2017-07-05T15:39:24.648Z,42.70
2017-07-05T15:41:52.273Z,42.70
2017-07-05T15:44:19.842Z,42.80
2017-07-05T15:46:47.419Z,42.20
2017-07-05T15:49:14.987Z,42.10
2017-07-05T15:51:42.571Z,42.20
2017-07-05T15:54:10.190Z,42.50
2017-07-05T15:56:37.779Z,42.20
2017-07-05T15:59:05.340Z,41.80
2017-07-05T16:01:32.921Z,41.80
2017-07-05T16:04:01.273Z,41.60
2017-07-05T16:06:28.840Z,41.50
2017-07-05T16:08:56.416Z,41.50
2017-07-05T16:11:24.782Z,40.80
2017-07-05T16:13:52.363Z,40.80
2017-07-05T16:16:19.954Z,40.40
2017-07-05T16:18:47.516Z,39.70
2017-07-05T16:21:15.100Z,38.70
2017-07-05T16:23:42.673Z,38.20
2017-07-05T16:26:10.284Z,37.40
2017-07-05T16:28:37.865Z,37.00
2017-07-05T16:31:05.453Z,36.60
2017-07-05T16:33:33.769Z,35.40
2017-07-05T16:36:01.355Z,35.40
2017-07-05T16:38:28.924Z,34.70
2017-07-05T16:40:56.501Z,34.20
2017-07-05T16:43:24.094Z,33.60
2017-07-05T16:45:52.021Z,32.90
2017-07-05T16:48:19.581Z,32.50
2017-07-05T16:50:47.132Z,32.10
2017-07-05T16:53:14.714Z,31.70
2017-07-05T16:55:42.273Z,31.20
2017-07-05T16:58:10.595Z,30.80
2017-07-05T17:00:38.159Z,30.80
2017-07-05T17:03:05.722Z,30.70
2017-07-05T17:05:33.291Z,30.70
2017-07-05T17:08:01.174Z,30.80
2017-07-05T17:10:28.750Z,30.80
2017-07-05T17:12:57.097Z,30.70
2017-07-05T17:15:24.683Z,30.70
2017-07-05T17:17:53.018Z,30.50
2017-07-05T17:20:20.597Z,30.50
2017-07-05T17:22:48.176Z,30.30
2017-07-05T17:25:15.743Z,30.10
2017-07-05T17:27:44.087Z,29.90
2017-07-05T17:30:12.055Z,29.80
2017-07-05T17:32:39.629Z,29.90
2017-07-05T17:35:07.208Z,29.80
2017-07-05T17:37:35.554Z,29.50
2017-07-05T17:40:03.148Z,29.50
2017-07-05T17:42:31.505Z,29.20
2017-07-05T17:44:59.842Z,29.00
2017-07-05T17:47:27.724Z,29.00
2017-07-05T17:49:55.310Z,29.00
2017-07-05T17:52:22.877Z,29.00
2017-07-05T17:54:50.469Z,29.00
2017-07-05T17:57:18.171Z,28.90
2017-07-05T17:59:45.832Z,29.00
2017-07-05T18:02:13.396Z,29.00
2017-07-05T18:04:40.976Z,29.00
2017-07-05T18:07:08.550Z,28.90
2017-07-05T18:09:36.139Z,28.80
2017-07-05T18:12:03.695Z,28.70
2017-07-05T18:14:31.586Z,28.60
2017-07-05T18:16:59.139Z,28.50
2017-07-05T18:19:26.708Z,28.50
2017-07-05T18:21:54.415Z,28.50
2017-07-05T18:24:22.003Z,28.40
2017-07-05T18:26:49.591Z,28.30
2017-07-05T18:29:17.147Z,28.20
2017-07-05T18:31:44.713Z,28.10
2017-07-05T18:34:12.271Z,28.00
2017-07-05T18:36:39.849Z,27.90
2017-07-05T18:39:08.203Z,27.80
2017-07-05T18:41:35.798Z,27.70
2017-07-05T18:44:03.395Z,27.70
2017-07-05T18:46:30.982Z,27.60
2017-07-05T18:48:58.555Z,27.50
2017-07-05T18:51:26.912Z,27.30
2017-07-05T18:53:54.479Z,27.30
2017-07-05T18:56:22.075Z,27.20
2017-07-05T18:58:49.689Z,27.10
2017-07-05T19:01:17.312Z,27.00
2017-07-05T19:03:44.892Z,26.90
2017-07-05T19:06:12.481Z,26.80
2017-07-05T19:08:40.032Z,26.80
2017-07-05T19:11:07.610Z,26.70
2017-07-05T19:13:35.222Z,26.50
2017-07-05T19:16:02.839Z,26.40
2017-07-05T19:18:30.400Z,26.30
2017-07-05T19:20:58.131Z,26.20
2017-07-05T19:23:25.698Z,26.20
2017-07-05T19:25:53.281Z,26.00
2017-07-05T19:28:20.870Z,25.90
2017-07-05T19:30:49.214Z,25.70
2017-07-05T19:33:16.783Z,25.70
2017-07-05T19:35:44.357Z,25.60
2017-07-05T19:38:13.232Z,25.40
2017-07-05T19:40:40.809Z,25.40
2017-07-05T19:43:09.143Z,25.10
2017-07-05T19:45:36.733Z,25.10
2017-07-05T19:48:04.340Z,25.10
2017-07-05T19:50:31.967Z,25.00
2017-07-05T19:53:00.521Z,24.90
2017-07-05T19:55:28.254Z,24.90
2017-07-05T19:57:55.908Z,24.80
2017-07-05T20:00:23.594Z,24.70
2017-07-05T20:02:51.264Z,24.60
2017-07-05T20:05:19.129Z,24.50
2017-07-05T20:07:46.736Z,24.50
2017-07-05T20:10:14.323Z,24.40
2017-07-05T20:12:41.927Z,24.30
2017-07-05T20:15:09.586Z,24.20
2017-07-05T20:17:37.957Z,24.10
2017-07-05T20:20:05.579Z,24.00
2017-07-05T20:22:33.152Z,24.00
2017-07-05T20:25:00.773Z,23.90
2017-07-05T20:27:28.389Z,23.80
2017-07-05T20:29:55.947Z,23.80
2017-07-05T20:32:23.529Z,23.70
2017-07-05T20:34:51.872Z,23.60
2017-07-05T20:37:19.471Z,23.60
2017-07-05T20:39:47.827Z,23.60
2017-07-05T20:42:15.396Z,23.50
2017-07-05T20:44:43.732Z,23.40
2017-07-05T20:47:11.323Z,23.40
2017-07-05T20:49:38.933Z,23.30
2017-07-05T20:52:06.563Z,23.20
2017-07-05T20:54:34.160Z,23.10
2017-07-05T20:57:01.741Z,23.10
2017-07-05T20:59:29.345Z,23.10
2017-07-05T21:01:56.920Z,23.10
2017-07-05T21:04:24.497Z,23.00
2017-07-05T21:06:52.083Z,23.00
2017-07-05T21:09:19.656Z,22.90
2017-07-05T21:11:47.271Z,22.90
2017-07-05T21:14:14.833Z,22.80
2017-07-05T21:16:42.388Z,22.70
2017-07-05T21:19:09.967Z,22.60
2017-07-05T21:21:37.540Z,22.60
2017-07-05T21:24:05.110Z,22.50
2017-07-05T21:26:32.681Z,22.40
2017-07-05T21:29:00.293Z,22.40
2017-07-05T21:31:27.878Z,22.30
2017-07-05T21:33:55.465Z,22.20
2017-07-05T21:36:23.046Z,22.30
2017-07-05T21:38:50.617Z,22.20
2017-07-05T21:41:18.189Z,22.10
2017-07-05T21:43:45.753Z,22.00
2017-07-05T21:46:13.306Z,21.90
2017-07-05T21:48:40.933Z,21.90
2017-07-05T21:51:08.563Z,21.90
2017-07-05T21:53:36.178Z,21.80
2017-07-05T21:56:03.737Z,21.80
2017-07-05T21:58:31.317Z,21.70
2017-07-05T22:00:59.001Z,21.70
2017-07-05T22:03:26.588Z,21.70
2017-07-05T22:05:54.243Z,21.70
2017-07-05T22:08:21.832Z,21.60
2017-07-05T22:10:49.378Z,21.60
2017-07-05T22:13:16.972Z,21.50
2017-07-05T22:15:44.544Z,21.50
2017-07-05T22:18:12.150Z,21.40
2017-07-05T22:20:39.727Z,21.40
2017-07-05T22:23:07.358Z,21.40
2017-07-05T22:25:34.947Z,21.40
2017-07-05T22:28:02.542Z,21.30
2017-07-05T22:30:30.127Z,21.30
2017-07-05T22:32:58.464Z,21.20
2017-07-05T22:35:26.027Z,21.20
2017-07-05T22:37:53.610Z,21.10
2017-07-05T22:40:21.935Z,21.10
2017-07-05T22:42:49.762Z,21.00
2017-07-05T22:45:17.322Z,21.00
2017-07-05T22:47:45.652Z,21.00
2017-07-05T22:50:13.254Z,21.00
2017-07-05T22:52:41.586Z,20.90
2017-07-05T22:55:09.169Z,20.90
2017-07-05T22:57:36.741Z,20.90
2017-07-05T23:00:04.302Z,20.80
2017-07-05T23:02:32.634Z,20.70
2017-07-05T23:05:00.213Z,20.70
2017-07-05T23:07:27.781Z,20.70
2017-07-05T23:09:55.379Z,20.60
2017-07-05T23:12:22.970Z,20.60
2017-07-05T23:14:50.565Z,20.60
2017-07-05T23:17:18.131Z,20.50
2017-07-05T23:19:46.472Z,20.50
2017-07-05T23:22:14.020Z,20.50
2017-07-05T23:24:41.605Z,20.50
2017-07-05T23:27:09.186Z,20.40
2017-07-05T23:29:37.534Z,20.30
2017-07-05T23:32:05.098Z,20.30
2017-07-05T23:34:32.676Z,20.30
2017-07-05T23:37:00.248Z,20.20
2017-07-05T23:39:28.612Z,20.20
2017-07-05T23:41:56.947Z,20.10
2017-07-05T23:44:24.531Z,20.10
2017-07-05T23:46:52.108Z,20.10
2017-07-05T23:49:19.685Z,20.10
2017-07-05T23:51:47.246Z,20.00
2017-07-05T23:54:14.828Z,20.00
2017-07-05T23:56:42.394Z,19.90
2017-07-05T23:59:09.973Z,19.90
